Time;durP1;ratioP1;P1;durP2;ratioP2;P2;SDS_P1;SDS_P2;PMS_P1;PMS_P2;Temp;Humidity;BMP_temperature;BMP_pressure;BME280_temperature;BME280_humidity;BME280_pressure;Samples;Min_cycle;Max_cycle;Signal;HPM_P1;HPM_P2
2024/02/27 00:00:11;;;;;;;32.58;29.02;;;;;;;;;;4996438;28;20249;-79
2024/02/27 00:02:39;;;;;;;28.80;26.25;;;;;;;;;;4996528;28;20245;-79
2024/02/27 00:05:06;;;;;;;29.60;26.90;;;;;;;;;;4977164;28;20218;-79
2024/02/27 00:07:33;;;;;;;30.80;27.60;;;;;;;;;;4977959;28;20191;-80
2024/02/27 00:10:04;;;;;;;31.77;28.63;;;;;;;;;;4994620;28;20230;-78
2024/02/27 00:12:31;;;;;;;29.00;26.40;;;;;;;;;;4995425;28;20194;-79
2024/02/27 00:14:58;;;;;;;30.15;27.20;;;;;;;;;;4996211;28;20269;-78
2024/02/27 00:17:25;;;;;;;32.72;29.65;;;;;;;;;;4996185;28;20217;-79
2024/02/27 00:19:52;;;;;;;31.60;28.50;;;;;;;;;;4982771;28;20274;-78
2024/02/27 00:22:18;;;;;;;32.03;29.02;;;;;;;;;;4975633;28;20450;-79
2024/02/27 00:24:45;;;;;;;31.48;28.55;;;;;;;;;;4976554;28;20222;-79
2024/02/27 00:27:14;;;;;;;33.53;30.33;;;;;;;;;;4976169;28;20273;-79
2024/02/27 00:29:41;;;;;;;30.17;27.52;;;;;;;;;;4975988;28;20282;-79
2024/02/27 00:32:08;;;;;;;34.60;31.27;;;;;;;;;;4975729;28;20215;-78
2024/02/27 00:34:36;;;;;;;31.90;29.17;;;;;;;;;;4976108;28;20647;-78
2024/02/27 00:37:03;;;;;;;32.17;29.10;;;;;;;;;;4976776;28;20209;-79
2024/02/27 00:39:30;;;;;;;33.20;29.90;;;;;;;;;;4975816;28;20199;-79
2024/02/27 00:41:58;;;;;;;32.08;28.88;;;;;;;;;;4975594;28;20207;-80
2024/02/27 00:44:26;;;;;;;33.25;30.17;;;;;;;;;;4976165;28;20281;-79
2024/02/27 00:46:53;;;;;;;33.70;30.27;;;;;;;;;;4976472;28;20345;-78
2024/02/27 00:49:20;;;;;;;33.65;30.30;;;;;;;;;;4976039;28;20250;-79
2024/02/27 00:51:47;;;;;;;30.60;27.55;;;;;;;;;;4975636;28;20252;-79
2024/02/27 00:54:14;;;;;;;29.60;26.90;;;;;;;;;;4975722;28;20781;-79
2024/02/27 00:56:42;;;;;;;32.10;29.17;;;;;;;;;;4976291;28;20215;-79
2024/02/27 00:59:09;;;;;;;33.72;30.40;;;;;;;;;;4980192;28;20218;-80
2024/02/27 01:01:37;;;;;;;32.17;28.77;;;;;;;;;;5001856;28;20273;-79
2024/02/27 01:04:04;;;;;;;32.20;29.00;;;;;;;;;;5002121;28;20625;-78
2024/02/27 01:06:31;;;;;;;35.15;31.70;;;;;;;;;;5002454;28;20724;-79
2024/02/27 01:08:58;;;;;;;32.45;29.27;;;;;;;;;;4984526;28;20281;-79
2024/02/27 01:11:25;;;;;;;31.27;28.25;;;;;;;;;;4975726;28;20258;-79
2024/02/27 01:13:52;;;;;;;32.20;28.75;;;;;;;;;;4983923;28;20272;-78
2024/02/27 01:16:20;;;;;;;33.65;30.15;;;;;;;;;;4995177;28;20195;-79
2024/02/27 01:18:48;;;;;;;33.22;29.95;;;;;;;;;;4993755;28;20564;-78
2024/02/27 01:21:15;;;;;;;33.13;29.98;;;;;;;;;;4975507;28;20598;-78
2024/02/27 01:23:42;;;;;;;32.75;29.52;;;;;;;;;;4985047;28;20245;-79
2024/02/27 01:26:09;;;;;;;33.88;30.38;;;;;;;;;;4995012;28;20214;-79
2024/02/27 01:28:36;;;;;;;34.33;30.90;;;;;;;;;;4994936;28;20687;-79
2024/02/27 01:31:05;;;;;;;34.30;29.73;;;;;;;;;;4994440;28;20222;-78
2024/02/27 01:33:32;;;;;;;31.45;27.85;;;;;;;;;;4994572;28;20297;-79
2024/02/27 01:36:00;;;;;;;33.17;27.55;;;;;;;;;;4994417;28;20190;-80
2024/02/27 01:38:27;;;;;;;33.83;30.63;;;;;;;;;;4994779;28;20563;-78
2024/02/27 01:40:54;;;;;;;33.53;30.38;;;;;;;;;;4994591;28;20201;-79
2024/02/27 01:43:22;;;;;;;32.33;29.40;;;;;;;;;;4994587;28;20264;-78
2024/02/27 01:45:50;;;;;;;34.70;30.95;;;;;;;;;;4994608;28;20213;-79
2024/02/27 01:48:17;;;;;;;37.22;32.58;;;;;;;;;;4995123;28;20712;-79
2024/02/27 01:50:45;;;;;;;35.60;31.77;;;;;;;;;;4993668;28;20222;-79
2024/02/27 01:53:14;;;;;;;34.70;31.40;;;;;;;;;;4994727;28;20234;-78
2024/02/27 01:55:41;;;;;;;35.28;31.80;;;;;;;;;;4994782;28;20237;-78
2024/02/27 01:58:08;;;;;;;35.28;31.55;;;;;;;;;;4994643;28;20214;-79
2024/02/27 02:00:35;;;;;;;33.10;29.85;;;;;;;;;;4994029;28;20214;-80
2024/02/27 02:03:03;;;;;;;33.28;30.13;;;;;;;;;;4994069;28;20237;-80
2024/02/27 02:05:30;;;;;;;34.78;31.08;;;;;;;;;;4994181;28;20207;-79
2024/02/27 02:07:57;;;;;;;33.95;30.55;;;;;;;;;;4993485;28;20218;-79
2024/02/27 02:10:26;;;;;;;39.90;33.38;;;;;;;;;;4994020;28;20276;-78
2024/02/27 02:12:53;;;;;;;37.83;33.95;;;;;;;;;;4993380;28;20218;-79
2024/02/27 02:15:20;;;;;;;35.00;31.35;;;;;;;;;;4993612;28;20621;-79
2024/02/27 02:17:47;;;;;;;37.22;33.40;;;;;;;;;;4993621;28;20206;-79
2024/02/27 02:20:17;;;;;;;36.75;32.75;;;;;;;;;;4994314;28;20211;-79
2024/02/27 02:22:44;;;;;;;35.70;31.80;;;;;;;;;;4993399;28;20186;-79
2024/02/27 02:25:13;;;;;;;35.80;31.90;;;;;;;;;;4993943;28;20554;-79
2024/02/27 02:27:42;;;;;;;35.63;31.77;;;;;;;;;;4993822;28;20297;-79
2024/02/27 02:30:11;;;;;;;35.22;31.40;;;;;;;;;;4993919;28;20268;-79
2024/02/27 02:32:46;;;;;;;33.65;30.25;;;;;;;;;;4993614;28;20214;-79
2024/02/27 02:35:13;;;;;;;36.35;32.50;;;;;;;;;;4994007;28;20221;-78
2024/02/27 02:37:41;;;;;;;39.25;34.42;;;;;;;;;;4994314;28;20390;-78
2024/02/27 02:40:09;;;;;;;38.97;33.70;;;;;;;;;;4993953;28;20210;-79
2024/02/27 02:42:36;;;;;;;36.60;32.88;;;;;;;;;;4993072;28;20285;-79
2024/02/27 02:45:02;;;;;;;39.97;35.63;;;;;;;;;;4993797;28;20264;-79
2024/02/27 02:47:29;;;;;;;34.70;31.08;;;;;;;;;;4993739;28;20210;-79
2024/02/27 02:49:56;;;;;;;33.10;29.58;;;;;;;;;;4993452;28;20257;-78
2024/02/27 02:52:23;;;;;;;39.25;33.55;;;;;;;;;;4992824;28;20269;-79
2024/02/27 02:54:52;;;;;;;39.13;34.85;;;;;;;;;;4993169;28;20622;-78
2024/02/27 02:57:19;;;;;;;38.58;33.03;;;;;;;;;;4993297;28;20179;-79
2024/02/27 02:59:46;;;;;;;36.70;32.80;;;;;;;;;;4993899;28;20206;-78
2024/02/27 03:02:13;;;;;;;40.05;35.80;;;;;;;;;;4993096;28;20292;-78
2024/02/27 03:04:40;;;;;;;35.97;32.15;;;;;;;;;;4993595;28;20261;-78
2024/02/27 03:07:07;;;;;;;38.92;34.20;;;;;;;;;;4993248;28;20741;-79
2024/02/27 03:09:34;;;;;;;40.88;33.58;;;;;;;;;;4993669;28;20206;-79
2024/02/27 03:12:03;;;;;;;37.13;32.55;;;;;;;;;;4993043;28;20226;-79
2024/02/27 03:14:30;;;;;;;44.33;35.78;;;;;;;;;;4993127;28;20733;-79
2024/02/27 03:16:57;;;;;;;42.67;34.55;;;;;;;;;;4993326;28;20304;-79
2024/02/27 03:19:25;;;;;;;41.08;36.60;;;;;;;;;;4995844;28;20211;-78
2024/02/27 03:21:55;;;;;;;39.38;34.83;;;;;;;;;;4996413;28;20297;-79
2024/02/27 03:24:22;;;;;;;37.92;33.10;;;;;;;;;;4996938;28;20230;-78
2024/02/27 03:26:49;;;;;;;41.05;35.03;;;;;;;;;;4996673;28;20210;-78
2024/02/27 03:29:17;;;;;;;41.13;35.63;;;;;;;;;;4996827;28;20281;-79
2024/02/27 03:31:44;;;;;;;43.53;36.47;;;;;;;;;;4996657;28;20710;-79
2024/02/27 03:34:11;;;;;;;41.40;36.17;;;;;;;;;;4996799;28;20253;-78
2024/02/27 03:36:40;;;;;;;38.63;34.15;;;;;;;;;;4997137;28;20214;-79
2024/02/27 03:39:07;;;;;;;40.78;34.15;;;;;;;;;;4996870;28;20206;-78
2024/02/27 03:41:34;;;;;;;36.80;31.55;;;;;;;;;;4996910;28;20210;-79
2024/02/27 03:44:03;;;;;;;38.60;32.40;;;;;;;;;;4996951;28;20241;-79
2024/02/27 03:46:31;;;;;;;45.55;35.72;;;;;;;;;;4997428;28;20202;-78
2024/02/27 03:48:58;;;;;;;40.15;34.20;;;;;;;;;;4997103;28;20658;-80
2024/02/27 03:51:25;;;;;;;38.20;32.63;;;;;;;;;;4995760;28;20226;-79
2024/02/27 03:53:52;;;;;;;36.03;32.22;;;;;;;;;;4996580;28;20226;-79
2024/02/27 03:56:19;;;;;;;36.65;32.35;;;;;;;;;;4978015;28;20207;-79
2024/02/27 03:58:47;;;;;;;35.85;32.25;;;;;;;;;;4977496;28;20261;-79
2024/02/27 04:01:16;;;;;;;41.85;35.20;;;;;;;;;;4976804;28;20199;-79
2024/02/27 04:03:45;;;;;;;38.97;31.42;;;;;;;;;;4976778;28;20225;-79
2024/02/27 04:06:12;;;;;;;42.28;34.22;;;;;;;;;;4976847;28;20203;-78
2024/02/27 04:08:39;;;;;;;37.00;32.30;;;;;;;;;;4976861;28;20207;-80
2024/02/27 04:11:06;;;;;;;37.00;32.35;;;;;;;;;;4976580;28;20222;-79
2024/02/27 04:13:33;;;;;;;36.10;32.13;;;;;;;;;;4977019;28;20286;-79
2024/02/27 04:16:00;;;;;;;37.50;30.95;;;;;;;;;;4976786;28;20545;-79
2024/02/27 04:18:27;;;;;;;40.08;34.05;;;;;;;;;;4976729;28;20269;-79
2024/02/27 04:20:55;;;;;;;36.65;31.50;;;;;;;;;;4976453;28;20289;-79
2024/02/27 04:23:22;;;;;;;33.22;29.63;;;;;;;;;;4976979;28;20291;-79
2024/02/27 04:25:49;;;;;;;33.72;30.02;;;;;;;;;;4976400;28;20619;-79
2024/02/27 04:28:16;;;;;;;37.28;32.53;;;;;;;;;;4976420;28;20199;-79
2024/02/27 04:30:43;;;;;;;33.42;29.00;;;;;;;;;;4975695;28;20223;-79
2024/02/27 04:33:10;;;;;;;34.28;30.77;;;;;;;;;;4977036;28;20305;-78
2024/02/27 04:35:37;;;;;;;34.83;31.23;;;;;;;;;;4976916;28;20222;-79
2024/02/27 04:38:06;;;;;;;32.75;29.55;;;;;;;;;;4977117;28;20266;-79
2024/02/27 04:40:33;;;;;;;32.75;29.33;;;;;;;;;;4976931;28;20210;-79
2024/02/27 04:43:00;;;;;;;37.53;32.47;;;;;;;;;;4976744;28;20836;-79
2024/02/27 04:45:27;;;;;;;34.47;31.00;;;;;;;;;;4977101;28;20211;-77
2024/02/27 04:47:54;;;;;;;33.47;29.95;;;;;;;;;;4977587;28;20251;-79
2024/02/27 04:50:21;;;;;;;39.50;32.38;;;;;;;;;;4977549;28;20214;-79
2024/02/27 04:52:48;;;;;;;34.15;29.95;;;;;;;;;;4978510;28;20206;-79
2024/02/27 04:55:16;;;;;;;34.88;31.27;;;;;;;;;;4979982;28;20211;-79
2024/02/27 04:57:43;;;;;;;36.88;32.88;;;;;;;;;;4978852;28;20265;-80
2024/02/27 05:00:10;;;;;;;34.38;30.15;;;;;;;;;;4978189;28;20207;-79
2024/02/27 05:02:37;;;;;;;30.98;27.70;;;;;;;;;;4978165;28;20211;-79
2024/02/27 05:05:04;;;;;;;34.25;30.63;;;;;;;;;;4976200;28;20281;-80
2024/02/27 05:07:31;;;;;;;36.03;31.58;;;;;;;;;;4976009;28;20210;-79
2024/02/27 05:09:58;;;;;;;34.20;30.55;;;;;;;;;;4975764;28;20230;-78
2024/02/27 05:12:27;;;;;;;34.83;31.35;;;;;;;;;;4975085;28;20238;-79
2024/02/27 05:14:54;;;;;;;36.65;30.45;;;;;;;;;;4975432;28;20707;-79
2024/02/27 05:17:21;;;;;;;35.03;31.35;;;;;;;;;;4975169;28;20206;-80
2024/02/27 05:19:48;;;;;;;35.33;31.50;;;;;;;;;;4975678;28;20285;-79
2024/02/27 05:22:15;;;;;;;38.20;31.58;;;;;;;;;;4975097;28;20211;-79
2024/02/27 05:24:42;;;;;;;36.50;32.75;;;;;;;;;;4976320;28;20231;-79
2024/02/27 05:27:09;;;;;;;40.13;34.05;;;;;;;;;;4980293;28;20791;-79
2024/02/27 05:29:37;;;;;;;37.00;32.97;;;;;;;;;;4989727;28;20210;-78
2024/02/27 05:32:04;;;;;;;36.67;32.97;;;;;;;;;;4987012;28;20669;-77
2024/02/27 05:34:32;;;;;;;31.30;28.15;;;;;;;;;;4974741;28;20243;-78
2024/02/27 05:36:59;;;;;;;36.17;31.83;;;;;;;;;;4975285;28;20217;-79
2024/02/27 05:39:26;;;;;;;35.33;31.73;;;;;;;;;;4975040;28;20277;-80
2024/02/27 05:41:54;;;;;;;34.88;31.27;;;;;;;;;;4973594;28;20203;-78
2024/02/27 05:44:21;;;;;;;39.35;34.15;;;;;;;;;;4992125;28;20236;-78
2024/02/27 05:46:49;;;;;;;34.60;30.95;;;;;;;;;;4994575;28;20214;-79
2024/02/27 05:49:16;;;;;;;43.95;32.85;;;;;;;;;;4994486;28;20214;-79
2024/02/27 05:51:43;;;;;;;34.13;30.33;;;;;;;;;;4994040;28;20582;-79
2024/02/27 05:54:10;;;;;;;38.80;33.75;;;;;;;;;;4994099;28;20572;-80
2024/02/27 05:56:37;;;;;;;36.00;32.17;;;;;;;;;;4995062;28;20206;-79
2024/02/27 05:59:04;;;;;;;35.70;31.30;;;;;;;;;;4995136;28;20202;-79
2024/02/27 06:01:32;;;;;;;40.08;33.15;;;;;;;;;;4995186;28;20214;-78
2024/02/27 06:04:00;;;;;;;35.83;32.13;;;;;;;;;;4997296;28;20240;-79
2024/02/27 06:06:27;;;;;;;37.50;33.45;;;;;;;;;;4995458;28;20206;-78
2024/02/27 06:08:54;;;;;;;37.85;32.10;;;;;;;;;;4995438;28;20268;-79
2024/02/27 06:11:21;;;;;;;34.92;31.23;;;;;;;;;;4995127;28;20749;-80
2024/02/27 06:13:48;;;;;;;34.58;30.20;;;;;;;;;;4991867;28;20223;-79
2024/02/27 06:16:15;;;;;;;35.65;30.50;;;;;;;;;;4982976;28;20288;-78
2024/02/27 06:18:45;;;;;;;37.95;32.63;;;;;;;;;;4975743;28;20266;-79
2024/02/27 06:24:01;;;;;;;34.90;30.38;;;;;;;;;;4985608;28;20229;-79
2024/02/27 06:26:28;;;;;;;37.30;33.00;;;;;;;;;;4994589;28;20210;-81
2024/02/27 06:28:55;;;;;;;34.53;30.75;;;;;;;;;;4995673;28;20264;-79
2024/02/27 06:31:22;;;;;;;35.55;31.67;;;;;;;;;;4995196;28;20226;-79
2024/02/27 06:33:49;;;;;;;35.78;32.00;;;;;;;;;;4995555;28;20230;-79
2024/02/27 06:36:17;;;;;;;37.38;30.55;;;;;;;;;;4994149;28;20213;-81
2024/02/27 06:38:44;;;;;;;34.55;30.75;;;;;;;;;;4994918;28;20257;-79
2024/02/27 06:41:11;;;;;;;35.85;32.00;;;;;;;;;;4987070;28;20229;-79
2024/02/27 06:43:38;;;;;;;41.63;33.47;;;;;;;;;;4982252;28;20239;-80
2024/02/27 06:46:06;;;;;;;35.65;30.80;;;;;;;;;;4980618;28;20262;-79
2024/02/27 06:48:33;;;;;;;36.45;32.60;;;;;;;;;;4986374;28;20226;-79
2024/02/27 06:51:00;;;;;;;32.35;28.95;;;;;;;;;;4978181;28;20242;-80
2024/02/27 06:53:28;;;;;;;34.03;30.42;;;;;;;;;;4977234;28;20233;-80
2024/02/27 06:55:55;;;;;;;33.28;29.65;;;;;;;;;;4979852;28;20306;-80
2024/02/27 06:58:22;;;;;;;33.85;30.33;;;;;;;;;;4979878;28;20210;-80
2024/02/27 07:00:49;;;;;;;37.22;31.30;;;;;;;;;;4996099;28;20259;-81
2024/02/27 07:03:16;;;;;;;33.75;30.33;;;;;;;;;;4982659;28;20310;-81
2024/02/27 07:05:43;;;;;;;32.50;29.15;;;;;;;;;;4980446;28;20261;-80
2024/02/27 07:08:10;;;;;;;28.92;26.13;;;;;;;;;;4998446;28;20225;-79
2024/02/27 07:10:39;;;;;;;31.38;28.00;;;;;;;;;;4996182;28;20613;-83
2024/02/27 07:13:06;;;;;;;32.50;29.02;;;;;;;;;;4990615;28;20241;-80
2024/02/27 07:15:34;;;;;;;32.72;29.55;;;;;;;;;;4979637;28;20207;-80
2024/02/27 07:18:01;;;;;;;32.80;29.40;;;;;;;;;;4980317;28;20215;-79
2024/02/27 07:20:29;;;;;;;29.52;26.50;;;;;;;;;;4979457;28;20211;-80
2024/02/27 07:22:56;;;;;;;33.03;26.30;;;;;;;;;;4979037;28;20214;-80
2024/02/27 07:25:23;;;;;;;34.28;30.73;;;;;;;;;;4980118;28;20636;-80
2024/02/27 07:27:51;;;;;;;30.27;27.27;;;;;;;;;;4979820;28;20301;-80
2024/02/27 07:30:19;;;;;;;32.70;29.40;;;;;;;;;;4980058;28;20234;-81
2024/02/27 07:32:46;;;;;;;30.02;26.95;;;;;;;;;;4979466;28;20231;-80
2024/02/27 07:35:14;;;;;;;31.98;28.48;;;;;;;;;;4979810;28;20203;-83
2024/02/27 07:37:41;;;;;;;31.55;28.23;;;;;;;;;;4979677;28;20987;-80
2024/02/27 07:40:09;;;;;;;32.78;29.27;;;;;;;;;;4983293;28;20202;-85
2024/02/27 07:42:36;;;;;;;31.48;28.08;;;;;;;;;;4997993;28;20244;-82
2024/02/27 07:45:05;;;;;;;32.33;29.05;;;;;;;;;;5000912;28;20225;-83
2024/02/27 07:47:32;;;;;;;33.42;29.88;;;;;;;;;;4998750;28;20617;-85
2024/02/27 07:49:59;;;;;;;30.33;27.30;;;;;;;;;;4987995;28;20253;-82
2024/02/27 07:52:26;;;;;;;30.92;27.83;;;;;;;;;;4983487;28;20591;-84
2024/02/27 07:54:53;;;;;;;31.83;28.73;;;;;;;;;;4981318;28;20262;-83
2024/02/27 07:57:24;;;;;;;32.63;29.48;;;;;;;;;;4981051;28;20270;-86
2024/02/27 07:59:51;;;;;;;29.60;26.55;;;;;;;;;;4993708;28;20214;-84
2024/02/27 08:02:21;;;;;;;29.08;26.17;;;;;;;;;;4984420;28;20211;-82
2024/02/27 08:04:48;;;;;;;30.20;27.30;;;;;;;;;;4977323;28;20884;-81
2024/02/27 08:07:15;;;;;;;32.15;29.15;;;;;;;;;;4977258;28;20215;-79
2024/02/27 08:09:42;;;;;;;30.00;27.27;;;;;;;;;;4978820;28;20191;-86
2024/02/27 08:12:11;;;;;;;31.70;28.50;;;;;;;;;;4980820;28;20231;-89
2024/02/27 08:14:38;;;;;;;31.45;28.42;;;;;;;;;;4979063;28;20245;-80
2024/02/27 08:17:05;;;;;;;32.10;29.00;;;;;;;;;;4978604;28;20266;-79
2024/02/27 08:19:34;;;;;;;33.70;30.20;;;;;;;;;;4990292;28;20246;-78
2024/02/27 08:22:04;;;;;;;30.08;27.30;;;;;;;;;;4997151;28;20297;-80
2024/02/27 08:24:31;;;;;;;31.95;28.85;;;;;;;;;;4995110;28;20312;-78
2024/02/27 08:26:58;;;;;;;31.63;28.25;;;;;;;;;;5000252;28;20210;-78
2024/02/27 08:29:25;;;;;;;29.63;26.70;;;;;;;;;;4998823;28;20256;-78
2024/02/27 08:31:53;;;;;;;30.70;27.73;;;;;;;;;;4994130;28;20226;-79
2024/02/27 08:34:19;;;;;;;30.48;27.75;;;;;;;;;;4994899;28;20312;-79
2024/02/27 08:36:48;;;;;;;29.73;26.88;;;;;;;;;;4995704;28;20562;-80
2024/02/27 08:39:15;;;;;;;30.20;27.30;;;;;;;;;;4995494;28;20210;-78
2024/02/27 08:41:43;;;;;;;29.10;26.50;;;;;;;;;;4992958;28;20215;-78
2024/02/27 08:44:10;;;;;;;29.33;26.52;;;;;;;;;;4984801;28;20583;-77
2024/02/27 08:46:39;;;;;;;31.23;28.35;;;;;;;;;;4990812;28;20218;-77
2024/02/27 08:49:06;;;;;;;28.75;25.98;;;;;;;;;;4996392;28;20647;-80
2024/02/27 08:51:33;;;;;;;28.65;25.88;;;;;;;;;;4991554;28;20211;-77
2024/02/27 08:54:02;;;;;;;27.13;24.73;;;;;;;;;;4991898;28;20221;-80
2024/02/27 08:56:29;;;;;;;30.98;27.98;;;;;;;;;;4998663;28;20291;-78
2024/02/27 08:58:56;;;;;;;30.02;27.17;;;;;;;;;;4993951;28;20214;-77
2024/02/27 09:01:23;;;;;;;31.50;28.27;;;;;;;;;;4994691;28;20214;-77
2024/02/27 09:03:50;;;;;;;28.35;25.65;;;;;;;;;;4996499;28;20229;-79
2024/02/27 09:06:17;;;;;;;29.02;26.27;;;;;;;;;;4997407;28;20217;-78
2024/02/27 09:08:44;;;;;;;26.83;24.25;;;;;;;;;;4995073;28;20202;-79
2024/02/27 09:11:12;;;;;;;31.70;28.23;;;;;;;;;;4993959;28;20871;-80
2024/02/27 09:13:39;;;;;;;30.17;27.33;;;;;;;;;;4994958;28;20226;-87
2024/02/27 09:16:06;;;;;;;25.33;23.33;;;;;;;;;;4978811;28;20211;-81
2024/02/27 09:18:35;;;;;;;29.30;26.38;;;;;;;;;;4977423;28;20551;-78
2024/02/27 09:21:02;;;;;;;27.27;24.60;;;;;;;;;;4991430;28;20741;-79
2024/02/27 09:23:29;;;;;;;27.88;25.48;;;;;;;;;;4993182;28;20638;-79
2024/02/27 09:25:56;;;;;;;28.70;26.13;;;;;;;;;;4993912;28;20218;-78
2024/02/27 09:28:24;;;;;;;30.02;27.00;;;;;;;;;;4994209;28;20206;-77
2024/02/27 09:30:51;;;;;;;27.52;25.05;;;;;;;;;;4993726;28;20214;-78
2024/02/27 09:33:20;;;;;;;29.63;26.35;;;;;;;;;;4992199;28;20288;-77
2024/02/27 09:35:47;;;;;;;28.73;25.88;;;;;;;;;;4993134;28;20241;-77
2024/02/27 09:38:15;;;;;;;27.80;25.30;;;;;;;;;;4993167;28;20218;-78
2024/02/27 09:40:42;;;;;;;26.92;24.23;;;;;;;;;;4992196;28;20663;-77
2024/02/27 09:43:14;;;;;;;25.83;23.60;;;;;;;;;;4992856;28;20633;-77
2024/02/27 09:45:42;;;;;;;26.35;24.17;;;;;;;;;;4992711;28;20241;-79
2024/02/27 09:48:10;;;;;;;28.15;25.58;;;;;;;;;;4992792;28;20249;-78
2024/02/27 09:50:38;;;;;;;26.55;24.45;;;;;;;;;;4992544;28;20284;-80
2024/02/27 09:53:07;;;;;;;27.35;24.85;;;;;;;;;;4992080;28;20226;-79
2024/02/27 09:55:33;;;;;;;27.45;24.90;;;;;;;;;;4993249;28;20253;-78
2024/02/27 09:58:03;;;;;;;26.65;24.23;;;;;;;;;;4992588;28;20280;-77
2024/02/27 10:00:30;;;;;;;28.02;25.27;;;;;;;;;;4992425;28;20206;-80
2024/02/27 10:02:58;;;;;;;27.95;25.38;;;;;;;;;;4992003;28;20210;-77
2024/02/27 10:05:25;;;;;;;27.42;24.65;;;;;;;;;;4992637;28;20214;-77
2024/02/27 10:07:52;;;;;;;29.07;26.47;;;;;;;;;;4992048;28;20213;-77
2024/02/27 10:10:20;;;;;;;27.75;25.25;;;;;;;;;;4992590;28;20449;-79
2024/02/27 10:12:47;;;;;;;28.73;26.10;;;;;;;;;;4991848;28;20221;-78
2024/02/27 10:15:14;;;;;;;28.17;25.57;;;;;;;;;;4991993;28;20520;-78
2024/02/27 10:17:43;;;;;;;28.23;25.80;;;;;;;;;;4992067;28;21246;-77
2024/02/27 10:20:12;;;;;;;27.30;25.00;;;;;;;;;;4992233;28;20435;-77
2024/02/27 10:22:40;;;;;;;28.60;25.90;;;;;;;;;;4991180;28;20671;-77
2024/02/27 10:25:11;;;;;;;27.30;24.95;;;;;;;;;;4992056;28;20206;-77
2024/02/27 10:27:38;;;;;;;28.13;25.73;;;;;;;;;;4991860;28;20205;-77
2024/02/27 10:30:07;;;;;;;28.97;26.40;;;;;;;;;;4992068;28;20970;-79
2024/02/27 10:32:34;;;;;;;27.57;25.20;;;;;;;;;;4990140;28;20485;-79
2024/02/27 10:35:03;;;;;;;27.95;25.45;;;;;;;;;;4991388;28;20463;-77
2024/02/27 10:37:32;;;;;;;29.10;26.60;;;;;;;;;;4992613;28;20206;-78
2024/02/27 10:40:00;;;;;;;27.00;24.55;;;;;;;;;;4993095;28;20257;-79
2024/02/27 10:42:28;;;;;;;28.02;25.63;;;;;;;;;;4991963;28;20202;-78
2024/02/27 10:44:55;;;;;;;28.08;25.55;;;;;;;;;;4992030;28;20232;-78
2024/02/27 10:47:22;;;;;;;27.67;25.17;;;;;;;;;;4992631;28;20305;-77
2024/02/27 10:49:49;;;;;;;26.10;23.90;;;;;;;;;;4992318;28;20202;-78
2024/02/27 10:52:17;;;;;;;29.48;26.73;;;;;;;;;;4991963;28;21192;-78
2024/02/27 10:54:46;;;;;;;27.57;25.37;;;;;;;;;;4991657;28;20288;-78
2024/02/27 10:57:14;;;;;;;26.77;24.50;;;;;;;;;;4992593;28;20441;-78
2024/02/27 10:59:41;;;;;;;27.92;25.52;;;;;;;;;;4992156;28;20670;-77
2024/02/27 11:02:13;;;;;;;26.27;24.17;;;;;;;;;;4994612;28;20202;-85
2024/02/27 11:04:40;;;;;;;29.52;25.02;;;;;;;;;;4995837;28;20486;-79
2024/02/27 11:07:07;;;;;;;28.05;25.70;;;;;;;;;;4996072;28;20221;-83
2024/02/27 11:09:36;;;;;;;27.80;25.30;;;;;;;;;;4997579;28;20269;-78
2024/02/27 11:12:05;;;;;;;27.40;24.95;;;;;;;;;;4992217;28;20510;-85
2024/02/27 11:14:36;;;;;;;26.93;24.73;;;;;;;;;;4992735;28;20230;-87
2024/02/27 11:17:05;;;;;;;28.38;26.08;;;;;;;;;;4998646;28;20802;-82
2024/02/27 11:19:33;;;;;;;27.90;25.60;;;;;;;;;;4997692;28;20271;-84
2024/02/27 11:22:01;;;;;;;26.40;24.30;;;;;;;;;;4998847;28;20240;-86
2024/02/27 11:24:28;;;;;;;27.40;24.90;;;;;;;;;;4997647;28;20226;-86
2024/02/27 11:26:55;;;;;;;28.27;25.73;;;;;;;;;;4998051;28;20496;-85
2024/02/27 11:29:24;;;;;;;26.97;24.83;;;;;;;;;;4998806;28;20203;-84
2024/02/27 11:31:51;;;;;;;27.08;24.77;;;;;;;;;;4998317;28;20445;-86
2024/02/27 11:34:23;;;;;;;25.50;23.50;;;;;;;;;;4999288;28;20769;-86
2024/02/27 11:37:05;;;;;;;26.87;24.43;;;;;;;;;;4999036;28;20441;-86
2024/02/27 11:39:32;;;;;;;26.77;24.67;;;;;;;;;;4999823;28;20408;-85
2024/02/27 11:41:59;;;;;;;27.07;24.97;;;;;;;;;;5001741;28;20446;-83
2024/02/27 11:44:28;;;;;;;27.70;25.60;;;;;;;;;;4990146;28;20492;-89
2024/02/27 11:46:55;;;;;;;26.23;24.30;;;;;;;;;;4987904;28;20466;-87
2024/02/27 11:49:38;;;;;;;26.80;24.70;;;;;;;;;;4980326;28;20475;-78
2024/02/27 11:52:05;;;;;;;24.30;22.40;;;;;;;;;;4975991;28;20434;-78
2024/02/27 11:54:35;;;;;;;26.27;24.17;;;;;;;;;;4976521;28;20529;-78
2024/02/27 11:57:03;;;;;;;26.48;24.17;;;;;;;;;;4976865;28;20504;-78
2024/02/27 11:59:32;;;;;;;26.77;24.60;;;;;;;;;;4976086;28;20690;-78
2024/02/27 12:02:00;;;;;;;27.17;24.97;;;;;;;;;;4983509;28;20467;-78
2024/02/27 12:04:27;;;;;;;27.65;25.35;;;;;;;;;;4995641;28;20479;-78
2024/02/27 12:06:54;;;;;;;24.33;22.35;;;;;;;;;;4998787;28;20729;-78
2024/02/27 12:09:25;;;;;;;24.67;22.80;;;;;;;;;;5001900;28;20866;-80
2024/02/27 12:11:53;;;;;;;27.20;25.10;;;;;;;;;;5001595;28;20517;-78
2024/02/27 12:14:20;;;;;;;25.65;23.60;;;;;;;;;;4999807;28;20487;-79
2024/02/27 12:16:48;;;;;;;27.07;24.57;;;;;;;;;;4995077;28;20198;-78
2024/02/27 12:19:16;;;;;;;26.30;24.20;;;;;;;;;;4995891;28;20453;-77
2024/02/27 12:21:43;;;;;;;26.45;24.35;;;;;;;;;;4995753;28;20449;-86
2024/02/27 12:24:10;;;;;;;24.90;23.00;;;;;;;;;;4983765;28;20235;-77
2024/02/27 12:26:38;;;;;;;26.33;24.30;;;;;;;;;;4974545;28;20215;-78
2024/02/27 12:29:05;;;;;;;28.17;25.77;;;;;;;;;;4982850;28;20960;-78
2024/02/27 12:31:32;;;;;;;25.15;23.27;;;;;;;;;;4980863;28;21002;-79
2024/02/27 12:34:01;;;;;;;26.53;24.37;;;;;;;;;;4991129;28;20241;-80
2024/02/27 12:36:28;;;;;;;26.60;24.45;;;;;;;;;;4994845;28;20433;-78
2024/02/27 12:38:55;;;;;;;25.90;23.90;;;;;;;;;;4994303;28;20206;-77
2024/02/27 12:41:23;;;;;;;26.75;24.67;;;;;;;;;;4993586;28;20206;-78
2024/02/27 12:43:50;;;;;;;26.90;24.90;;;;;;;;;;4993517;28;20230;-78
2024/02/27 12:46:17;;;;;;;24.00;22.23;;;;;;;;;;4994426;28;20210;-79
2024/02/27 12:48:44;;;;;;;26.05;23.98;;;;;;;;;;4995928;28;20210;-77
2024/02/27 12:51:13;;;;;;;27.42;24.73;;;;;;;;;;4991969;28;20218;-78
2024/02/27 12:53:42;;;;;;;23.88;22.05;;;;;;;;;;4993528;28;20325;-77
2024/02/27 12:56:15;;;;;;;26.73;24.73;;;;;;;;;;4992899;28;20621;-80
2024/02/27 12:58:42;;;;;;;26.93;24.73;;;;;;;;;;4993689;28;20190;-79
2024/02/27 13:01:09;;;;;;;27.02;24.73;;;;;;;;;;4993033;28;20816;-77
2024/02/27 13:03:36;;;;;;;25.40;23.50;;;;;;;;;;4993496;28;20259;-77
2024/02/27 13:06:04;;;;;;;25.73;23.73;;;;;;;;;;4993287;28;20941;-79
2024/02/27 13:08:33;;;;;;;24.90;22.90;;;;;;;;;;4993476;28;20265;-78
2024/02/27 13:11:00;;;;;;;24.67;22.87;;;;;;;;;;4992782;28;20453;-78
2024/02/27 13:13:32;;;;;;;25.33;23.40;;;;;;;;;;4993411;28;20552;-77
2024/02/27 13:16:02;;;;;;;25.73;23.73;;;;;;;;;;4993387;28;20906;-78
2024/02/27 13:18:30;;;;;;;26.10;23.90;;;;;;;;;;4993376;28;20465;-78
2024/02/27 13:20:57;;;;;;;26.02;24.02;;;;;;;;;;4992599;28;21191;-79
2024/02/27 13:23:24;;;;;;;26.67;24.57;;;;;;;;;;4992983;28;20226;-77
2024/02/27 13:25:52;;;;;;;27.20;25.00;;;;;;;;;;4993080;28;20484;-78
2024/02/27 13:28:19;;;;;;;25.92;23.92;;;;;;;;;;4992519;28;20511;-77
2024/02/27 13:30:46;;;;;;;26.50;24.50;;;;;;;;;;4992556;28;20206;-77
2024/02/27 13:33:14;;;;;;;25.63;23.67;;;;;;;;;;4992764;28;20473;-77
2024/02/27 13:35:40;;;;;;;25.70;23.60;;;;;;;;;;4992641;28;20464;-77
2024/02/27 13:38:07;;;;;;;25.35;23.30;;;;;;;;;;4992853;28;20453;-77
2024/02/27 13:40:35;;;;;;;26.95;24.83;;;;;;;;;;4992296;28;20269;-78
2024/02/27 13:43:03;;;;;;;24.77;22.77;;;;;;;;;;4992311;28;20260;-77
2024/02/27 13:45:30;;;;;;;25.00;23.07;;;;;;;;;;4991795;28;20491;-78
2024/02/27 13:47:57;;;;;;;26.93;24.80;;;;;;;;;;4992477;28;20512;-82
2024/02/27 13:50:24;;;;;;;24.65;22.80;;;;;;;;;;4992681;28;20453;-78
2024/02/27 13:52:51;;;;;;;24.77;22.67;;;;;;;;;;4991748;28;20241;-77
2024/02/27 13:55:18;;;;;;;24.58;22.77;;;;;;;;;;4992715;28;20494;-81
2024/02/27 13:57:45;;;;;;;25.88;23.85;;;;;;;;;;4995117;28;20233;-81
2024/02/27 14:00:14;;;;;;;25.30;23.35;;;;;;;;;;4997092;28;20206;-79
2024/02/27 14:02:42;;;;;;;25.00;23.00;;;;;;;;;;4992901;28;20216;-78
2024/02/27 14:05:10;;;;;;;25.33;23.23;;;;;;;;;;4990209;28;20315;-77
2024/02/27 14:07:37;;;;;;;24.63;22.83;;;;;;;;;;4991503;28;20207;-76
2024/02/27 14:10:05;;;;;;;24.83;22.80;;;;;;;;;;4990452;28;20453;-76
2024/02/27 14:12:32;;;;;;;23.67;21.73;;;;;;;;;;4990700;28;20488;-78
2024/02/27 14:14:59;;;;;;;24.70;23.00;;;;;;;;;;4989408;28;20696;-79
2024/02/27 14:17:27;;;;;;;24.67;22.80;;;;;;;;;;4988732;28;20841;-77
2024/02/27 14:19:55;;;;;;;25.47;23.50;;;;;;;;;;4991544;28;20461;-77